Time;durP1;ratioP1;P1;durP2;ratioP2;P2;SDS_P1;SDS_P2;PMS_P1;PMS_P2;Temp;Humidity;BMP_temperature;BMP_pressure;BME280_temperature;BME280_humidity;BME280_pressure;Samples;Min_cycle;Max_cycle;Signal;HPM_P1;HPM_P2
2023/10/02 00:01:10;;;;;;;;;;;17.50;83.80;;;;;;5076586;28;19908;-81
2023/10/02 00:03:39;;;;;;;;;;;17.50;83.80;;;;;;5075308;28;19916;-81
2023/10/02 00:06:09;;;;;;;;;;;17.50;83.70;;;;;;5075967;28;20443;-81
2023/10/02 00:08:40;;;;;;;;;;;17.50;83.90;;;;;;5068703;28;19955;-81
2023/10/02 00:14:18;;;;;;;;;;;17.30;84.30;;;;;;5078038;28;19939;-81
2023/10/02 00:16:42;;;;;;;;;;;17.30;84.60;;;;;;5073772;28;19912;-81
2023/10/02 00:19:22;;;;;;;;;;;17.20;84.80;;;;;;5078359;28;19975;-81
2023/10/02 00:21:49;;;;;;;;;;;17.10;84.60;;;;;;5077796;28;19952;-82
2023/10/02 00:24:16;;;;;;;;;;;17.10;84.70;;;;;;5072170;28;20361;-81
2023/10/02 00:26:42;;;;;;;;;;;17.10;84.70;;;;;;5076201;28;19970;-81
2023/10/02 00:29:09;;;;;;;;;;;17.10;84.70;;;;;;5078136;28;19948;-81
2023/10/02 00:31:38;;;;;;;;;;;17.10;84.50;;;;;;5078842;28;19940;-81
2023/10/02 00:34:03;;;;;;;;;;;17.00;84.80;;;;;;5078640;28;19935;-81
2023/10/02 00:36:30;;;;;;;;;;;17.00;85.00;;;;;;5079538;28;19909;-81
2023/10/02 00:39:24;;;;;;;;;;;17.00;85.00;;;;;;5077296;28;19970;-81
2023/10/02 00:42:10;;;;;;;;;;;17.00;85.10;;;;;;5073467;28;19913;-81
2023/10/02 00:44:51;;;;;;;;;;;16.90;85.40;;;;;;5073467;28;19919;-82
2023/10/02 00:47:38;;;;;;;;;;;16.90;85.20;;;;;;5074437;28;19917;-81
2023/10/02 00:50:16;;;;;;;;;;;16.90;85.00;;;;;;5077744;28;19917;-81
2023/10/02 00:52:59;;;;;;;;;;;16.90;85.00;;;;;;5094614;28;19908;-81
2023/10/02 00:55:34;;;;;;;;;;;16.90;84.70;;;;;;5076768;28;19947;-81
2023/10/02 00:58:01;;;;;;;;;;;16.90;85.00;;;;;;5073934;28;19915;-81
2023/10/02 01:00:37;;;;;;;;;;;16.90;85.00;;;;;;5077941;28;19916;-81
2023/10/02 01:03:04;;;;;;;;;;;16.90;85.10;;;;;;5075889;28;19908;-81
2023/10/02 01:05:31;;;;;;;;;;;16.80;85.20;;;;;;5079857;28;19912;-81
2023/10/02 01:07:57;;;;;;;;;;;16.80;85.20;;;;;;5075548;28;20384;-81
2023/10/02 01:10:29;;;;;;;;;;;16.70;85.30;;;;;;5069183;28;19916;-81
2023/10/02 01:13:01;;;;;;;;;;;16.70;85.40;;;;;;5065583;28;20375;-81
2023/10/02 01:15:27;;;;;;;;;;;16.70;85.30;;;;;;5077864;28;19931;-80
2023/10/02 01:17:53;;;;;;;;;;;16.60;85.50;;;;;;5074381;28;19916;-81
2023/10/02 01:20:32;;;;;;;;;;;16.60;85.60;;;;;;5077452;28;19909;-82
2023/10/02 01:23:16;;;;;;;;;;;16.60;85.60;;;;;;5100799;28;19915;-81
2023/10/02 01:25:44;;;;;;;;;;;16.60;85.80;;;;;;5084311;28;19923;-80
2023/10/02 01:28:13;;;;;;;;;;;16.50;85.80;;;;;;5088894;28;19920;-81
2023/10/02 01:30:40;;;;;;;;;;;16.50;85.80;;;;;;5073375;28;19963;-81
2023/10/02 01:33:21;;;;;;;;;;;16.50;85.90;;;;;;5076291;28;19942;-81
2023/10/02 01:35:48;;;;;;;;;;;16.50;86.10;;;;;;5078462;28;20277;-81
2023/10/02 01:38:14;;;;;;;;;;;16.50;85.90;;;;;;5074769;28;20103;-81
2023/10/02 01:40:43;;;;;;;;;;;16.50;85.70;;;;;;5066517;28;19924;-81
2023/10/02 01:43:15;;;;;;;;;;;16.50;85.70;;;;;;5077490;28;19979;-80
2023/10/02 01:45:44;;;;;;;;;;;16.50;85.70;;;;;;5075961;28;19908;-81
2023/10/02 01:48:12;;;;;;;;;;;16.50;85.70;;;;;;5078386;28;19913;-81
2023/10/02 01:50:37;;;;;;;;;;;16.50;85.80;;;;;;5075276;28;19958;-83
2023/10/02 01:53:05;;;;;;;;;;;16.40;85.80;;;;;;5076351;28;19913;-81
2023/10/02 01:55:32;;;;;;;;;;;16.50;85.80;;;;;;5071028;28;20365;-81
2023/10/02 01:58:16;;;;;;;;;;;16.50;85.70;;;;;;5071429;28;19919;-81
2023/10/02 02:00:42;;;;;;;;;;;16.50;85.50;;;;;;5085388;28;20005;-82
2023/10/02 02:03:17;;;;;;;;;;;16.50;85.60;;;;;;5080148;28;19909;-81
2023/10/02 02:05:46;;;;;;;;;;;16.60;85.50;;;;;;5078200;28;19912;-81
2023/10/02 02:08:21;;;;;;;;;;;16.60;85.20;;;;;;5070798;28;19912;-81
2023/10/02 02:11:14;;;;;;;;;;;16.60;85.00;;;;;;5077282;28;19915;-80
2023/10/02 02:13:44;;;;;;;;;;;16.70;85.00;;;;;;5077325;28;20015;-81
2023/10/02 02:16:15;;;;;;;;;;;16.70;84.60;;;;;;5076871;28;19908;-80
2023/10/02 02:18:45;;;;;;;;;;;16.70;84.40;;;;;;5076223;28;19908;-81
2023/10/02 02:21:14;;;;;;;;;;;16.80;84.10;;;;;;5076940;28;19995;-81
2023/10/02 02:23:40;;;;;;;;;;;16.80;83.90;;;;;;5074022;28;20385;-80
2023/10/02 02:26:08;;;;;;;;;;;16.80;84.30;;;;;;5074684;28;19920;-81
2023/10/02 02:28:43;;;;;;;;;;;16.80;84.40;;;;;;5064226;28;19932;-81
2023/10/02 02:31:29;;;;;;;;;;;16.80;84.00;;;;;;5070400;28;19919;-81
2023/10/02 02:33:55;;;;;;;;;;;16.90;83.60;;;;;;5077234;28;19912;-81
2023/10/02 02:36:22;;;;;;;;;;;17.00;83.30;;;;;;5078085;28;19913;-82
2023/10/02 02:38:48;;;;;;;;;;;16.90;83.60;;;;;;5077139;28;19931;-80
2023/10/02 02:41:18;;;;;;;;;;;17.00;83.40;;;;;;5074143;28;19916;-81
2023/10/02 02:43:46;;;;;;;;;;;16.90;83.50;;;;;;5077917;28;19908;-80
2023/10/02 02:46:17;;;;;;;;;;;17.00;83.30;;;;;;5082922;28;19923;-80
2023/10/02 02:48:44;;;;;;;;;;;17.10;82.90;;;;;;5085662;28;19948;-80
2023/10/02 02:51:18;;;;;;;;;;;17.10;83.00;;;;;;5086370;28;20262;-79
2023/10/02 02:53:43;;;;;;;;;;;17.00;83.20;;;;;;5082934;28;19968;-80
2023/10/02 02:56:15;;;;;;;;;;;17.00;83.30;;;;;;5092094;28;19912;-79
2023/10/02 02:58:44;;;;;;;;;;;17.00;83.40;;;;;;5087460;28;19938;-79
2023/10/02 03:01:15;;;;;;;;;;;17.00;83.40;;;;;;5087291;28;19916;-79
2023/10/02 03:03:42;;;;;;;;;;;16.90;83.70;;;;;;5085255;28;19920;-79
2023/10/02 03:06:17;;;;;;;;;;;16.80;83.90;;;;;;5081372;28;19923;-79
2023/10/02 03:08:44;;;;;;;;;;;16.80;83.90;;;;;;5084571;28;19904;-78
2023/10/02 03:11:10;;;;;;;;;;;16.80;83.80;;;;;;5071471;28;20354;-79
2023/10/02 03:13:36;;;;;;;;;;;16.80;83.90;;;;;;5072689;28;19916;-80
2023/10/02 03:16:08;;;;;;;;;;;16.80;84.00;;;;;;5076143;28;19916;-81
2023/10/02 03:18:36;;;;;;;;;;;16.80;84.10;;;;;;5075830;28;19944;-80
2023/10/02 03:21:14;;;;;;;;;;;16.80;84.10;;;;;;5066690;28;19908;-79
2023/10/02 03:23:45;;;;;;;;;;;16.80;84.30;;;;;;5074051;28;19915;-80
2023/10/02 03:26:21;;;;;;;;;;;16.70;84.30;;;;;;5071404;28;19920;-79
2023/10/02 03:28:47;;;;;;;;;;;16.70;84.40;;;;;;5067557;28;19912;-79
2023/10/02 03:31:16;;;;;;;;;;;16.60;84.60;;;;;;5072220;28;19935;-79
2023/10/02 03:33:42;;;;;;;;;;;16.60;84.60;;;;;;5073588;28;19944;-79
2023/10/02 03:36:10;;;;;;;;;;;16.50;84.70;;;;;;5072229;28;19913;-80
2023/10/02 03:38:43;;;;;;;;;;;16.60;84.70;;;;;;5073873;28;20042;-79
2023/10/02 03:41:10;;;;;;;;;;;16.60;84.80;;;;;;5076905;28;20376;-80
2023/10/02 03:43:46;;;;;;;;;;;16.60;84.80;;;;;;5075314;28;20003;-80
2023/10/02 03:46:15;;;;;;;;;;;16.50;85.00;;;;;;5074119;28;19916;-80
2023/10/02 03:48:41;;;;;;;;;;;16.50;84.70;;;;;;5077463;28;20391;-80
2023/10/02 03:51:07;;;;;;;;;;;16.50;84.80;;;;;;5078353;28;19947;-80
2023/10/02 03:53:34;;;;;;;;;;;16.50;84.20;;;;;;5076463;28;19923;-80
2023/10/02 03:58:52;;;;;;;;;;;16.50;84.40;;;;;;5073104;28;19914;-79
2023/10/02 04:01:27;;;;;;;;;;;16.50;84.40;;;;;;5075853;28;19915;-80
2023/10/02 04:04:04;;;;;;;;;;;16.60;84.30;;;;;;5078293;28;19923;-80
2023/10/02 04:06:33;;;;;;;;;;;16.60;84.00;;;;;;5074565;28;20360;-79
2023/10/02 04:09:12;;;;;;;;;;;16.50;84.10;;;;;;5078214;28;20293;-80
2023/10/02 04:11:39;;;;;;;;;;;16.50;84.00;;;;;;5070315;28;20061;-79
2023/10/02 04:14:17;;;;;;;;;;;16.50;84.30;;;;;;5070349;28;19947;-81
2023/10/02 04:16:49;;;;;;;;;;;16.50;84.70;;;;;;5076056;28;20018;-80
2023/10/02 04:19:16;;;;;;;;;;;16.50;84.20;;;;;;5077205;28;20344;-80
2023/10/02 04:21:47;;;;;;;;;;;16.50;84.30;;;;;;5077345;28;19955;-80
2023/10/02 04:24:13;;;;;;;;;;;16.50;84.20;;;;;;5077544;28;19978;-80
2023/10/02 04:26:41;;;;;;;;;;;16.50;84.20;;;;;;5072731;28;19916;-80
2023/10/02 04:29:15;;;;;;;;;;;16.50;84.20;;;;;;5066074;28;19908;-80
2023/10/02 04:31:44;;;;;;;;;;;16.50;84.10;;;;;;5078531;28;19915;-80
2023/10/02 04:34:24;;;;;;;;;;;16.50;83.90;;;;;;5075000;28;19927;-80
2023/10/02 04:36:51;;;;;;;;;;;16.50;83.90;;;;;;5079107;28;19913;-80
2023/10/02 04:42:14;;;;;;;;;;;16.60;83.50;;;;;;5076161;28;19958;-80
2023/10/02 04:44:44;;;;;;;;;;;16.60;83.40;;;;;;5077565;28;19961;-80
2023/10/02 04:47:20;;;;;;;;;;;16.60;83.50;;;;;;5086774;28;19936;-80
2023/10/02 04:55:23;;;;;;;;;;;16.60;83.90;;;;;;5080208;28;19908;-80
2023/10/02 04:57:50;;;;;;;;;;;16.60;84.00;;;;;;5077649;28;20304;-81
2023/10/02 05:00:32;;;;;;;;;;;16.60;83.80;;;;;;5073630;28;19909;-80
2023/10/02 05:03:24;;;;;;;;;;;16.50;83.90;;;;;;5079137;28;19908;-81
2023/10/02 05:05:53;;;;;;;;;;;16.50;83.80;;;;;;5079274;28;19939;-79
2023/10/02 05:08:29;;;;;;;;;;;16.50;83.90;;;;;;5074627;28;19940;-80
2023/10/02 05:11:05;;;;;;;;;;;16.50;84.00;;;;;;5094184;28;19966;-80
2023/10/02 05:16:15;;;;;;;;;;;16.40;84.30;;;;;;5067800;28;20253;-80
2023/10/02 05:18:44;;;;;;;;;;;16.40;84.00;;;;;;5076507;28;19908;-80
2023/10/02 05:21:16;;;;;;;;;;;16.40;84.00;;;;;;5078682;28;19912;-80
2023/10/02 05:23:43;;;;;;;;;;;16.50;83.80;;;;;;5076262;28;19909;-80
2023/10/02 05:26:29;;;;;;;;;;;16.50;83.80;;;;;;5078619;28;19963;-80
2023/10/02 05:28:55;;;;;;;;;;;16.40;83.70;;;;;;5078568;28;19908;-80
2023/10/02 05:31:21;;;;;;;;;;;16.40;83.90;;;;;;5077521;28;19916;-80
2023/10/02 05:33:48;;;;;;;;;;;16.40;83.90;;;;;;5070571;28;19913;-81
2023/10/02 05:36:19;;;;;;;;;;;16.50;83.50;;;;;;5079162;28;19923;-80
2023/10/02 05:39:05;;;;;;;;;;;16.50;83.50;;;;;;5081340;28;19962;-80
2023/10/02 05:41:41;;;;;;;;;;;16.60;83.00;;;;;;5078558;28;19979;-80
2023/10/02 05:44:12;;;;;;;;;;;16.60;82.70;;;;;;5080262;28;19923;-79
2023/10/02 05:46:55;;;;;;;;;;;16.60;83.00;;;;;;5079286;28;19939;-80
2023/10/02 05:49:23;;;;;;;;;;;16.50;83.00;;;;;;5071226;28;20385;-80
2023/10/02 05:51:49;;;;;;;;;;;16.50;83.00;;;;;;5078165;28;19909;-80
2023/10/02 05:54:19;;;;;;;;;;;16.50;83.00;;;;;;5078768;28;19999;-79
2023/10/02 05:56:44;;;;;;;;;;;16.50;82.80;;;;;;5071044;28;19944;-80
2023/10/02 05:59:12;;;;;;;;;;;16.60;82.90;;;;;;5069797;28;21267;-79
2023/10/02 06:01:37;;;;;;;;;;;16.60;83.00;;;;;;5068310;28;20016;-80
2023/10/02 06:04:05;;;;;;;;;;;16.60;82.70;;;;;;5072767;28;20011;-80
2023/10/02 06:06:36;;;;;;;;;;;16.60;82.60;;;;;;5072778;28;19917;-81
2023/10/02 06:09:12;;;;;;;;;;;16.60;82.20;;;;;;5074857;28;19909;-80
2023/10/02 06:11:59;;;;;;;;;;;16.70;82.00;;;;;;5074771;28;20019;-80
2023/10/02 06:14:25;;;;;;;;;;;16.70;82.20;;;;;;5072771;28;20920;-80
2023/10/02 06:16:52;;;;;;;;;;;16.80;82.00;;;;;;5074148;28;19919;-80
2023/10/02 06:19:17;;;;;;;;;;;16.80;81.70;;;;;;5076575;28;19956;-80
2023/10/02 06:21:46;;;;;;;;;;;16.80;82.00;;;;;;5074919;28;19923;-80
2023/10/02 06:24:19;;;;;;;;;;;16.80;82.10;;;;;;5065471;28;19921;-80
2023/10/02 06:29:32;;;;;;;;;;;16.80;81.50;;;;;;5073720;28;19963;-80
2023/10/02 06:32:11;;;;;;;;;;;16.80;81.90;;;;;;5075851;28;19913;-79
2023/10/02 06:34:43;;;;;;;;;;;16.80;82.00;;;;;;5073517;28;19916;-80
2023/10/02 06:37:12;;;;;;;;;;;16.90;81.60;;;;;;5071708;28;19927;-80
2023/10/02 06:39:39;;;;;;;;;;;16.90;81.60;;;;;;5069888;28;20301;-80
2023/10/02 06:42:06;;;;;;;;;;;17.00;81.40;;;;;;5072082;28;20003;-81
2023/10/02 06:44:41;;;;;;;;;;;17.00;81.60;;;;;;5067470;28;19920;-80
2023/10/02 06:47:13;;;;;;;;;;;17.10;81.80;;;;;;5072000;28;19916;-81
2023/10/02 06:49:43;;;;;;;;;;;17.10;81.50;;;;;;5068185;28;20392;-81
2023/10/02 06:52:15;;;;;;;;;;;17.10;81.90;;;;;;5070263;28;19912;-80
2023/10/02 06:54:44;;;;;;;;;;;17.10;82.20;;;;;;5071940;28;20019;-80
2023/10/02 06:57:11;;;;;;;;;;;17.20;81.80;;;;;;5071757;28;19912;-78
2023/10/02 06:59:41;;;;;;;;;;;17.20;82.00;;;;;;5069724;28;20781;-80
2023/10/02 07:02:09;;;;;;;;;;;17.30;81.70;;;;;;5070399;28;19912;-80
2023/10/02 07:04:35;;;;;;;;;;;17.30;81.30;;;;;;5066771;28;19916;-80
2023/10/02 07:07:07;;;;;;;;;;;17.30;81.50;;;;;;5065721;28;19924;-80
2023/10/02 07:09:34;;;;;;;;;;;17.40;81.00;;;;;;5073692;28;19913;-80
2023/10/02 07:12:08;;;;;;;;;;;17.50;80.80;;;;;;5072278;28;19908;-79
2023/10/02 07:14:36;;;;;;;;;;;17.50;80.30;;;;;;5072017;28;19920;-80
2023/10/02 07:17:17;;;;;;;;;;;17.60;79.90;;;;;;5072233;28;19912;-80
2023/10/02 07:19:48;;;;;;;;;;;17.60;80.10;;;;;;5078162;28;19916;-80
2023/10/02 07:22:33;;;;;;;;;;;17.60;79.60;;;;;;5074390;28;19919;-80
2023/10/02 07:24:58;;;;;;;;;;;17.60;79.70;;;;;;5072066;28;19958;-80
2023/10/02 07:27:27;;;;;;;;;;;17.70;79.80;;;;;;5075961;28;20002;-80
2023/10/02 07:29:54;;;;;;;;;;;17.80;79.60;;;;;;5073092;28;20280;-80
2023/10/02 07:32:21;;;;;;;;;;;17.80;79.80;;;;;;5077880;28;19913;-80
2023/10/02 07:34:53;;;;;;;;;;;18.00;78.90;;;;;;5072985;28;20004;-80
2023/10/02 07:37:21;;;;;;;;;;;18.00;79.10;;;;;;5070894;28;19912;-78
2023/10/02 07:39:48;;;;;;;;;;;18.10;78.80;;;;;;5072748;28;19909;-80
2023/10/02 07:42:16;;;;;;;;;;;18.10;79.10;;;;;;5072808;28;19908;-80
2023/10/02 07:44:41;;;;;;;;;;;18.10;79.20;;;;;;5072092;28;20292;-79
2023/10/02 07:47:10;;;;;;;;;;;18.10;79.30;;;;;;5074062;28;19928;-80
2023/10/02 07:49:37;;;;;;;;;;;18.10;79.30;;;;;;5074007;28;19920;-79
2023/10/02 07:52:06;;;;;;;;;;;18.20;79.50;;;;;;5072344;28;19913;-80
2023/10/02 07:54:44;;;;;;;;;;;18.20;79.70;;;;;;5065835;28;20031;-80
2023/10/02 07:57:18;;;;;;;;;;;18.30;79.40;;;;;;5063532;28;19913;-80
2023/10/02 07:59:43;;;;;;;;;;;18.30;79.30;;;;;;5076410;28;19955;-80
2023/10/02 08:02:21;;;;;;;;;;;18.30;79.40;;;;;;5075896;28;19912;-80
2023/10/02 08:04:48;;;;;;;;;;;18.40;79.00;;;;;;5076324;28;19934;-80
2023/10/02 08:07:13;;;;;;;;;;;18.50;78.50;;;;;;5071066;28;19916;-80
2023/10/02 08:09:39;;;;;;;;;;;18.50;78.80;;;;;;5070846;28;19912;-79
2023/10/02 08:12:08;;;;;;;;;;;18.60;78.50;;;;;;5067616;28;20432;-79
2023/10/02 08:14:42;;;;;;;;;;;18.60;78.50;;;;;;5068013;28;20400;-80
2023/10/02 08:17:22;;;;;;;;;;;18.60;78.60;;;;;;5069776;28;20389;-79
2023/10/02 08:19:54;;;;;;;;;;;18.80;78.40;;;;;;5069842;28;19920;-79
2023/10/02 08:22:20;;;;;;;;;;;18.90;78.10;;;;;;5073354;28;19938;-79
2023/10/02 08:24:45;;;;;;;;;;;19.00;78.40;;;;;;5074477;28;19999;-79
2023/10/02 08:27:14;;;;;;;;;;;19.00;77.00;;;;;;5068629;28;20054;-80
2023/10/02 08:29:41;;;;;;;;;;;19.20;77.20;;;;;;5072307;28;20289;-79
2023/10/02 08:32:07;;;;;;;;;;;19.30;76.90;;;;;;5077062;28;19958;-80
2023/10/02 08:34:32;;;;;;;;;;;19.30;77.30;;;;;;5074665;28;19913;-80
2023/10/02 08:37:07;;;;;;;;;;;19.30;77.20;;;;;;5070232;28;19998;-80
2023/10/02 08:39:33;;;;;;;;;;;19.30;77.30;;;;;;5071587;28;20023;-80
2023/10/02 08:41:59;;;;;;;;;;;19.30;77.10;;;;;;5072246;28;19915;-80
2023/10/02 08:44:25;;;;;;;;;;;19.30;76.90;;;;;;5076751;28;19914;-79
2023/10/02 08:46:50;;;;;;;;;;;19.30;77.30;;;;;;5092426;28;19935;-80
2023/10/02 08:49:18;;;;;;;;;;;19.30;77.00;;;;;;5074712;28;20000;-79
2023/10/02 08:51:50;;;;;;;;;;;19.50;76.90;;;;;;5066364;28;20358;-80
2023/10/02 08:54:17;;;;;;;;;;;19.50;76.50;;;;;;5071958;28;20010;-79
2023/10/02 08:56:48;;;;;;;;;;;19.50;76.90;;;;;;5074524;28;19916;-80
2023/10/02 08:59:18;;;;;;;;;;;19.60;76.90;;;;;;5071003;28;19917;-80
2023/10/02 09:01:49;;;;;;;;;;;19.70;76.30;;;;;;5070280;28;19917;-80
2023/10/02 09:04:22;;;;;;;;;;;19.80;77.00;;;;;;5069803;28;19916;-80
2023/10/02 09:06:58;;;;;;;;;;;19.80;77.00;;;;;;5068278;28;19932;-79
2023/10/02 09:09:27;;;;;;;;;;;19.90;76.50;;;;;;5075772;28;19916;-80
2023/10/02 09:11:57;;;;;;;;;;;20.00;75.10;;;;;;5073850;28;19920;-80
2023/10/02 09:14:24;;;;;;;;;;;20.20;73.90;;;;;;5072135;28;19917;-80
2023/10/02 09:17:42;;;;;;;;;;;20.40;73.70;;;;;;5067784;28;20372;-79
2023/10/02 09:19:41;;;;;;;;;;;20.40;74.50;;;;;;5059623;28;19959;-79
2023/10/02 09:22:13;;;;;;;;;;;20.40;75.30;;;;;;5070264;28;19916;-80
2023/10/02 09:24:40;;;;;;;;;;;20.30;75.40;;;;;;5068006;28;19913;-80
2023/10/02 09:27:25;;;;;;;;;;;20.30;76.40;;;;;;5075184;28;19916;-79
2023/10/02 09:32:47;;;;;;;;;;;20.40;76.30;;;;;;5072032;28;19938;-79
2023/10/02 09:35:39;;;;;;;;;;;20.50;76.40;;;;;;5069472;28;19955;-80
2023/10/02 09:38:10;;;;;;;;;;;20.50;76.60;;;;;;5072040;28;20356;-80
2023/10/02 09:41:14;;;;;;;;;;;20.50;74.90;;;;;;5073162;28;19951;-78
2023/10/02 09:43:41;;;;;;;;;;;20.60;75.30;;;;;;5066377;28;20019;-79
2023/10/02 09:46:15;;;;;;;;;;;20.70;75.20;;;;;;5065880;28;19916;-80
2023/10/02 09:48:56;;;;;;;;;;;20.80;74.20;;;;;;5066428;28;19928;-80
2023/10/02 09:51:30;;;;;;;;;;;20.90;72.80;;;;;;5075282;28;20362;-80
2023/10/02 09:54:14;;;;;;;;;;;21.20;70.80;;;;;;5066733;28;20158;-80
2023/10/02 09:56:53;;;;;;;;;;;21.30;69.90;;;;;;5067395;28;19913;-80
2023/10/02 09:59:21;;;;;;;;;;;21.50;68.70;;;;;;5070398;28;19955;-80
2023/10/02 10:07:46;;;;;;;;;;;21.80;68.70;;;;;;5065100;28;19923;-80
2023/10/02 10:13:24;;;;;;;;;;;21.80;67.90;;;;;;5071267;28;19969;-80
2023/10/02 10:15:49;;;;;;;;;;;21.90;68.60;;;;;;5073218;28;19908;-80
2023/10/02 10:18:17;;;;;;;;;;;21.80;69.30;;;;;;5072629;28;19958;-79
2023/10/02 10:20:44;;;;;;;;;;;21.80;68.30;;;;;;5067759;28;20405;-80
2023/10/02 10:23:31;;;;;;;;;;;21.90;69.50;;;;;;5071827;28;19920;-79
2023/10/02 10:26:07;;;;;;;;;;;22.00;69.80;;;;;;5070933;28;19920;-80
2023/10/02 10:28:33;;;;;;;;;;;21.90;69.70;;;;;;5068751;28;20080;-80
2023/10/02 10:31:01;;;;;;;;;;;21.90;69.40;;;;;;5068440;28;19912;-80
2023/10/02 10:33:27;;;;;;;;;;;22.10;68.50;;;;;;5067508;28;19938;-80
2023/10/02 10:35:54;;;;;;;;;;;22.10;68.70;;;;;;5073966;28;19913;-80
2023/10/02 10:38:31;;;;;;;;;;;22.30;67.60;;;;;;5075540;28;19909;-79
2023/10/02 10:41:00;;;;;;;;;;;22.50;67.20;;;;;;5073144;28;19921;-80
2023/10/02 10:43:43;;;;;;;;;;;22.60;67.20;;;;;;5068966;28;19919;-80
2023/10/02 10:46:28;;;;;;;;;;;22.60;67.10;;;;;;5067713;28;19967;-80
2023/10/02 10:48:58;;;;;;;;;;;22.60;66.50;;;;;;5066363;28;19924;-80
2023/10/02 10:51:33;;;;;;;;;;;22.60;67.00;;;;;;5071701;28;19919;-80
2023/10/02 10:54:12;;;;;;;;;;;22.70;67.10;;;;;;5071814;28;19975;-80
2023/10/02 10:56:44;;;;;;;;;;;22.80;66.10;;;;;;5072526;28;19909;-80
2023/10/02 10:59:14;;;;;;;;;;;22.80;67.50;;;;;;5074281;28;19935;-80
2023/10/02 11:02:09;;;;;;;;;;;22.80;66.90;;;;;;5071543;28;19912;-80
2023/10/02 11:04:40;;;;;;;;;;;22.90;66.40;;;;;;5070376;28;19912;-79
2023/10/02 11:07:19;;;;;;;;;;;22.80;66.60;;;;;;5066444;28;20385;-80
2023/10/02 11:09:56;;;;;;;;;;;22.80;67.30;;;;;;5066176;28;20801;-79
2023/10/02 11:12:25;;;;;;;;;;;22.80;67.10;;;;;;5067261;28;19919;-80
2023/10/02 11:14:51;;;;;;;;;;;23.00;66.20;;;;;;5068392;28;19927;-80
2023/10/02 11:17:28;;;;;;;;;;;23.20;65.90;;;;;;5069800;28;19909;-80
2023/10/02 11:19:57;;;;;;;;;;;23.30;65.50;;;;;;5067129;28;20025;-80
2023/10/02 11:22:23;;;;;;;;;;;23.50;65.20;;;;;;5073854;28;19954;-79
2023/10/02 11:24:52;;;;;;;;;;;23.70;65.80;;;;;;5074420;28;19908;-80
2023/10/02 11:27:18;;;;;;;;;;;23.90;65.80;;;;;;5074494;28;20003;-80
2023/10/02 11:30:03;;;;;;;;;;;24.00;65.90;;;;;;5068697;28;19959;-80
2023/10/02 11:32:48;;;;;;;;;;;24.00;66.50;;;;;;5063822;28;20024;-80
2023/10/02 11:35:14;;;;;;;;;;;24.10;63.80;;;;;;5065239;28;19966;-80
2023/10/02 11:37:49;;;;;;;;;;;24.30;63.00;;;;;;5074353;28;19909;-80
2023/10/02 11:40:15;;;;;;;;;;;24.30;62.90;;;;;;5069320;28;20493;-81
2023/10/02 11:42:40;;;;;;;;;;;24.40;63.50;;;;;;5064762;28;19913;-81
2023/10/02 11:45:06;;;;;;;;;;;24.40;63.60;;;;;;5071301;28;19920;-80
2023/10/02 11:47:32;;;;;;;;;;;24.50;63.10;;;;;;5072004;28;20445;-81
2023/10/02 11:49:57;;;;;;;;;;;24.50;61.70;;;;;;5073140;28;19913;-80
2023/10/02 11:52:23;;;;;;;;;;;24.50;61.20;;;;;;5069581;28;19959;-80
2023/10/02 11:54:48;;;;;;;;;;;24.50;61.70;;;;;;5073318;28;19908;-79
2023/10/02 11:57:14;;;;;;;;;;;24.50;62.10;;;;;;5085016;28;20330;-80
2023/10/02 11:59:47;;;;;;;;;;;24.40;62.30;;;;;;5081182;28;19932;-79
2023/10/02 12:02:16;;;;;;;;;;;24.40;62.00;;;;;;5081136;28;19913;-80
2023/10/02 12:04:43;;;;;;;;;;;24.40;62.50;;;;;;5077414;28;19915;-80
2023/10/02 12:07:10;;;;;;;;;;;24.30;62.70;;;;;;5071038;28;19927;-80
2023/10/02 12:09:35;;;;;;;;;;;24.40;62.20;;;;;;5077705;28;19965;-80
2023/10/02 12:12:01;;;;;;;;;;;24.40;62.00;;;;;;5095916;28;20007;-80
2023/10/02 12:14:27;;;;;;;;;;;24.50;62.10;;;;;;5086338;28;19916;-81
2023/10/02 12:16:57;;;;;;;;;;;24.60;62.60;;;;;;5076905;28;20327;-80
2023/10/02 12:19:24;;;;;;;;;;;24.50;62.70;;;;;;5077939;28;19912;-80
2023/10/02 12:21:50;;;;;;;;;;;24.60;62.30;;;;;;5074490;28;20306;-79
2023/10/02 12:24:15;;;;;;;;;;;24.60;61.20;;;;;;5074309;28;19909;-80
2023/10/02 12:26:41;;;;;;;;;;;24.60;61.00;;;;;;5074670;28;20010;-80
2023/10/02 12:29:06;;;;;;;;;;;24.70;61.10;;;;;;5077011;28;19912;-80
2023/10/02 12:31:36;;;;;;;;;;;24.80;61.20;;;;;;5073943;28;19913;-80
2023/10/02 12:34:02;;;;;;;;;;;24.90;60.60;;;;;;5073766;28;19912;-80
2023/10/02 12:36:27;;;;;;;;;;;24.90;61.20;;;;;;5072629;28;19912;-81
2023/10/02 12:38:53;;;;;;;;;;;25.00;62.00;;;;;;5074552;28;20308;-80
2023/10/02 12:41:25;;;;;;;;;;;24.90;60.60;;;;;;5075390;28;19927;-80
2023/10/02 12:43:58;;;;;;;;;;;24.80;60.60;;;;;;5075054;28;20408;-80
2023/10/02 12:46:28;;;;;;;;;;;24.80;61.40;;;;;;5073444;28;19916;-80
2023/10/02 12:48:57;;;;;;;;;;;24.90;61.40;;;;;;5073494;28;20292;-80
2023/10/02 12:51:23;;;;;;;;;;;24.90;62.00;;;;;;5076556;28;19909;-80
2023/10/02 12:53:49;;;;;;;;;;;24.90;62.00;;;;;;5073556;28;19944;-80
2023/10/02 12:56:18;;;;;;;;;;;24.90;61.00;;;;;;5074776;28;19913;-80
2023/10/02 12:58:44;;;;;;;;;;;25.00;61.60;;;;;;5073052;28;20361;-80
2023/10/02 13:01:13;;;;;;;;;;;25.00;61.40;;;;;;5072963;28;19924;-80
2023/10/02 13:03:39;;;;;;;;;;;25.00;61.30;;;;;;5074874;28;19913;-80
2023/10/02 13:06:05;;;;;;;;;;;24.90;62.60;;;;;;5074514;28;19909;-80
2023/10/02 13:08:32;;;;;;;;;;;25.00;61.10;;;;;;5075616;28;19923;-80
2023/10/02 13:10:58;;;;;;;;;;;25.00;60.30;;;;;;5072454;28;19961;-80
2023/10/02 13:13:24;;;;;;;;;;;25.00;59.40;;;;;;5071797;28;20443;-80
2023/10/02 13:16:00;;;;;;;;;;;25.10;59.70;;;;;;5076174;28;19999;-80
2023/10/02 13:18:27;;;;;;;;;;;25.00;61.50;;;;;;5073299;28;19916;-80
2023/10/02 13:20:55;;;;;;;;;;;25.00;61.00;;;;;;5071873;28;19948;-80
2023/10/02 13:23:20;;;;;;;;;;;24.90;60.50;;;;;;5072787;28;19962;-80
2023/10/02 13:25:46;;;;;;;;;;;24.90;60.20;;;;;;5074680;28;19912;-80
2023/10/02 13:28:11;;;;;;;;;;;24.90;60.50;;;;;;5069560;28;19920;-80
2023/10/02 13:30:41;;;;;;;;;;;24.90;61.50;;;;;;5072216;28;19920;-80
2023/10/02 13:33:07;;;;;;;;;;;24.90;61.90;;;;;;5067914;28;20124;-80
2023/10/02 13:35:44;;;;;;;;;;;24.90;62.00;;;;;;5074734;28;20007;-80
2023/10/02 13:38:10;;;;;;;;;;;24.90;61.10;;;;;;5077327;28;19913;-80
2023/10/02 13:40:37;;;;;;;;;;;25.10;60.30;;;;;;5073856;28;19909;-80
2023/10/02 13:43:05;;;;;;;;;;;25.10;60.30;;;;;;5073704;28;19963;-80
2023/10/02 13:45:31;;;;;;;;;;;25.10;59.90;;;;;;5072883;28;21146;-80
2023/10/02 13:47:57;;;;;;;;;;;25.20;59.40;;;;;;5069104;28;19924;-80
2023/10/02 13:50:22;;;;;;;;;;;25.10;60.00;;;;;;5071295;28;19917;-80
2023/10/02 13:52:52;;;;;;;;;;;25.00;60.80;;;;;;5073691;28;19976;-80
2023/10/02 13:55:26;;;;;;;;;;;25.10;60.70;;;;;;5076525;28;19917;-79
2023/10/02 13:57:54;;;;;;;;;;;25.00;60.70;;;;;;5073830;28;19931;-80
2023/10/02 14:00:20;;;;;;;;;;;25.00;61.40;;;;;;5074729;28;19919;-80
2023/10/02 14:02:49;;;;;;;;;;;25.10;61.80;;;;;;5072177;28;19909;-80
2023/10/02 14:05:15;;;;;;;;;;;25.00;62.80;;;;;;5073924;28;19954;-80
2023/10/02 14:07:44;;;;;;;;;;;24.90;61.00;;;;;;5072439;28;19913;-80
2023/10/02 14:10:10;;;;;;;;;;;24.90;61.40;;;;;;5076281;28;19916;-80
2023/10/02 14:12:38;;;;;;;;;;;25.00;61.80;;;;;;5073496;28;19909;-80
2023/10/02 14:15:08;;;;;;;;;;;25.10;60.60;;;;;;5074446;28;19920;-80
2023/10/02 14:17:36;;;;;;;;;;;25.10;60.10;;;;;;5073273;28;19938;-80
2023/10/02 14:20:14;;;;;;;;;;;25.10;60.60;;;;;;5074032;28;19912;-80
2023/10/02 14:22:40;;;;;;;;;;;25.00;61.50;;;;;;5072339;28;19909;-81
2023/10/02 14:25:06;;;;;;;;;;;24.90;62.60;;;;;;5074842;28;19912;-80
2023/10/02 14:27:32;;;;;;;;;;;24.90;61.30;;;;;;5070394;28;20003;-80
2023/10/02 14:29:57;;;;;;;;;;;24.80;62.30;;;;;;5070891;28;20377;-80
2023/10/02 14:32:23;;;;;;;;;;;24.70;62.50;;;;;;5072521;28;19913;-80
2023/10/02 14:34:52;;;;;;;;;;;24.60;62.90;;;;;;5071925;28;19913;-80
2023/10/02 14:37:17;;;;;;;;;;;24.60;62.40;;;;;;5072441;28;20071;-80
2023/10/02 14:39:43;;;;;;;;;;;24.70;62.70;;;;;;5072650;28;19917;-80
2023/10/02 14:42:11;;;;;;;;;;;24.60;62.40;;;;;;5074258;28;20274;-80
2023/10/02 14:44:36;;;;;;;;;;;24.60;63.20;;;;;;5072481;28;19919;-80
2023/10/02 14:47:02;;;;;;;;;;;24.70;62.00;;;;;;5071475;28;19916;-80
2023/10/02 14:49:27;;;;;;;;;;;24.60;63.00;;;;;;5071577;28;19944;-80
2023/10/02 14:51:53;;;;;;;;;;;24.60;64.00;;;;;;5072805;28;20392;-80
2023/10/02 14:54:18;;;;;;;;;;;24.50;64.30;;;;;;5070631;28;19912;-80
2023/10/02 14:56:44;;;;;;;;;;;24.50;64.10;;;;;;5075161;28;19920;-80
2023/10/02 14:59:10;;;;;;;;;;;24.40;65.30;;;;;;5076764;28;19947;-80
2023/10/02 15:01:35;;;;;;;;;;;24.40;64.30;;;;;;5073069;28;19912;-80
2023/10/02 15:04:00;;;;;;;;;;;24.40;65.20;;;;;;5075294;28;19917;-79
2023/10/02 15:06:28;;;;;;;;;;;24.50;63.50;;;;;;5073371;28;19920;-80